createdAt,value
2023-01-11T00:00:02.684Z,98219.02
2023-01-11T00:03:02.343Z,98224.17
2023-01-11T00:06:24.511Z,98225.04
2023-01-11T00:08:52.618Z,98225.80
2023-01-11T00:11:20.538Z,98228.41
2023-01-11T00:13:48.502Z,98228.49
2023-01-11T00:16:17.126Z,98230.34
2023-01-11T00:18:45.069Z,98232.03
2023-01-11T00:21:13.321Z,98230.67
2023-01-11T00:23:41.397Z,98229.20
2023-01-11T00:27:26.444Z,98234.23
2023-01-11T00:29:54.436Z,98231.77
2023-01-11T00:32:22.434Z,98237.00
2023-01-11T00:34:50.484Z,98236.72
2023-01-11T00:37:18.578Z,98236.08
2023-01-11T00:39:46.522Z,98231.88
2023-01-11T00:42:33.339Z,98234.26
2023-01-11T00:45:20.017Z,98232.03
2023-01-11T00:48:05.831Z,98231.69
2023-01-11T00:50:36.997Z,98234.41
2023-01-11T00:53:06.078Z,98234.51
2023-01-11T00:56:02.516Z,98239.58
2023-01-11T00:58:31.103Z,98243.64
2023-01-11T01:01:06.577Z,98241.03
2023-01-11T01:03:34.731Z,98242.79
2023-01-11T01:06:02.953Z,98242.70
2023-01-11T01:08:31.115Z,98244.25
2023-01-11T01:10:59.076Z,98250.23
2023-01-11T01:14:15.863Z,98247.51
2023-01-11T01:16:45.951Z,98243.23
2023-01-11T01:23:34.550Z,98248.98
2023-01-11T01:26:58.450Z,98247.29
2023-01-11T01:29:26.631Z,98247.71
2023-01-11T01:31:54.566Z,98242.64
2023-01-11T01:34:50.329Z,98249.27
2023-01-11T01:37:18.322Z,98241.00
2023-01-11T01:39:46.326Z,98237.64
2023-01-11T01:42:20.240Z,98238.75
2023-01-11T01:45:02.697Z,98240.00
2023-01-11T01:47:39.800Z,98239.40
2023-01-11T01:50:17.990Z,98239.32
2023-01-11T01:52:50.382Z,98235.63
2023-01-11T01:55:27.073Z,98231.79
2023-01-11T01:57:57.255Z,98232.04
2023-01-11T02:00:25.382Z,98238.11
2023-01-11T02:02:54.873Z,98240.64
2023-01-11T02:05:23.149Z,98240.42
2023-01-11T02:07:52.145Z,98241.16
2023-01-11T02:10:22.699Z,98239.17
2023-01-11T02:13:02.833Z,98236.39
2023-01-11T02:15:31.668Z,98231.95
2023-01-11T02:18:00.144Z,98228.41
2023-01-11T02:20:52.892Z,98225.39
2023-01-11T02:23:42.609Z,98220.73
2023-01-11T02:26:22.659Z,98214.67
2023-01-11T02:28:50.521Z,98209.80
2023-01-11T02:31:29.030Z,98208.05
2023-01-11T02:34:31.116Z,98208.98
2023-01-11T02:37:11.496Z,98209.52
2023-01-11T02:39:53.332Z,98216.98
2023-01-11T02:43:02.228Z,98220.69
2023-01-11T02:46:23.339Z,98214.84
2023-01-11T02:49:20.630Z,98218.77
2023-01-11T02:51:55.376Z,98224.58
2023-01-11T02:54:24.551Z,98223.95
2023-01-11T02:56:57.546Z,98220.08
2023-01-11T02:59:32.140Z,98220.02
2023-01-11T03:02:00.822Z,98219.92
2023-01-11T03:04:33.088Z,98220.77
2023-01-11T03:07:25.659Z,98217.75
2023-01-11T03:10:05.174Z,98226.58
2023-01-11T03:12:55.186Z,98222.95
2023-01-11T03:16:01.618Z,98224.71
2023-01-11T03:18:39.656Z,98217.09
2023-01-11T03:21:16.509Z,98216.52
2023-01-11T03:24:14.692Z,98214.20
2023-01-11T03:26:54.925Z,98215.15
2023-01-11T03:29:40.602Z,98214.67
2023-01-11T03:32:22.700Z,98218.14
2023-01-11T03:35:09.377Z,98223.59
2023-01-11T03:37:56.720Z,98222.34
2023-01-11T03:40:30.757Z,98221.23
2023-01-11T03:43:13.583Z,98223.23
2023-01-11T03:46:05.922Z,98223.09
2023-01-11T03:48:47.564Z,98221.12
2023-01-11T03:51:21.743Z,98223.45
2023-01-11T03:53:51.997Z,98223.16
2023-01-11T03:56:24.771Z,98217.44
2023-01-11T03:58:52.834Z,98217.23
2023-01-11T04:01:21.018Z,98218.67
2023-01-11T04:03:48.951Z,98215.21
2023-01-11T04:06:19.425Z,98212.86
2023-01-11T04:08:47.513Z,98209.80
2023-01-11T04:11:15.505Z,98210.71
2023-01-11T04:13:43.425Z,98209.05
2023-01-11T04:16:11.510Z,98207.48
2023-01-11T04:18:39.438Z,98209.84
2023-01-11T04:21:07.543Z,98211.67
2023-01-11T04:23:36.631Z,98206.11
2023-01-11T04:26:05.187Z,98208.92
2023-01-11T04:28:34.455Z,98206.05
2023-01-11T04:31:02.487Z,98207.71
2023-01-11T04:33:30.545Z,98208.59
2023-01-11T04:35:58.681Z,98208.63
2023-01-11T04:38:27.339Z,98202.39
2023-01-11T04:41:15.446Z,98197.31
2023-01-11T04:43:43.497Z,98194.25
2023-01-11T04:46:11.551Z,98193.02
2023-01-11T04:48:41.545Z,98190.31
2023-01-11T04:51:10.202Z,98192.53
2023-01-11T04:53:38.781Z,98193.39
2023-01-11T04:56:07.497Z,98193.48
2023-01-11T04:58:38.300Z,98191.76
2023-01-11T05:01:16.360Z,98190.16
2023-01-11T05:03:45.989Z,98187.35
2023-01-11T05:06:15.414Z,98188.80
2023-01-11T05:08:47.908Z,98190.75
2023-01-11T05:11:17.375Z,98191.45
2023-01-11T05:13:45.462Z,98187.21
2023-01-11T05:16:19.574Z,98186.27
2023-01-11T05:18:52.424Z,98188.19
2023-01-11T05:21:22.990Z,98190.48
2023-01-11T05:24:47.444Z,98187.55
2023-01-11T05:27:15.442Z,98185.56
2023-01-11T05:29:44.572Z,98188.05
2023-01-11T05:32:15.802Z,98187.74
2023-01-11T05:34:44.014Z,98185.36
2023-01-11T05:37:12.127Z,98184.95
2023-01-11T05:39:40.116Z,98180.21
2023-01-11T05:42:08.026Z,98185.05
2023-01-11T05:44:56.839Z,98176.92
2023-01-11T05:47:26.108Z,98169.16
2023-01-11T05:49:58.502Z,98163.97
2023-01-11T05:52:26.415Z,98159.11
2023-01-11T05:54:54.347Z,98157.23
2023-01-11T05:57:22.266Z,98161.31
2023-01-11T05:59:50.264Z,98166.92
2023-01-11T06:02:18.473Z,98166.05
2023-01-11T06:04:46.567Z,98166.48
2023-01-11T06:07:14.603Z,98168.58
2023-01-11T06:09:42.746Z,98174.63
2023-01-11T06:12:11.167Z,98176.35
2023-01-11T06:14:39.773Z,98174.61
2023-01-11T06:17:10.028Z,98175.46
2023-01-11T06:19:38.089Z,98173.86
2023-01-11T06:22:43.938Z,98166.57
2023-01-11T06:25:12.480Z,98167.09
2023-01-11T06:27:40.498Z,98168.38
2023-01-11T06:30:09.322Z,98160.69
2023-01-11T06:32:37.422Z,98155.52
2023-01-11T06:35:06.131Z,98153.58
2023-01-11T06:37:34.230Z,98155.38
2023-01-11T06:40:02.352Z,98151.41
2023-01-11T06:42:30.619Z,98153.02
2023-01-11T06:44:59.093Z,98154.52
2023-01-11T06:47:27.332Z,98159.85
2023-01-11T06:49:56.179Z,98161.91
2023-01-11T06:52:24.639Z,98163.79
2023-01-11T06:54:52.655Z,98162.66
2023-01-11T06:57:20.529Z,98162.25
2023-01-11T06:59:49.574Z,98164.69
2023-01-11T07:02:17.704Z,98165.59
2023-01-11T07:04:45.833Z,98164.17
2023-01-11T07:07:13.785Z,98164.19
2023-01-11T07:09:41.766Z,98163.30
2023-01-11T07:12:09.653Z,98163.13
2023-01-11T07:14:37.550Z,98161.14
2023-01-11T07:17:05.479Z,98163.04
2023-01-11T07:19:33.369Z,98164.45
2023-01-11T07:22:01.379Z,98168.77
2023-01-11T07:24:29.349Z,98170.33
2023-01-11T07:26:59.796Z,98166.08
2023-01-11T07:29:27.909Z,98166.22
2023-01-11T07:31:55.888Z,98165.39
2023-01-11T07:34:24.297Z,98159.98
2023-01-11T07:36:52.300Z,98155.77
2023-01-11T07:39:20.184Z,98150.73
2023-01-11T07:42:06.612Z,98149.95
2023-01-11T07:44:34.486Z,98147.14
2023-01-11T07:47:02.442Z,98142.63
2023-01-11T07:49:30.492Z,98140.51
2023-01-11T07:51:58.509Z,98136.47
2023-01-11T07:54:26.532Z,98129.15
2023-01-11T07:56:56.645Z,98125.03
2023-01-11T07:59:24.669Z,98124.52
2023-01-11T08:01:52.798Z,98126.29
2023-01-11T08:04:20.734Z,98123.32
2023-01-11T08:06:48.685Z,98124.27
2023-01-11T08:09:16.641Z,98121.81
2023-01-11T08:12:03.411Z,98124.87
2023-01-11T08:14:40.398Z,98127.89
2023-01-11T08:17:12.382Z,98124.98
2023-01-11T08:19:40.896Z,98126.42
2023-01-11T08:22:10.049Z,98124.02
2023-01-11T08:24:38.095Z,98122.33
2023-01-11T08:27:06.473Z,98122.27
2023-01-11T08:29:34.558Z,98127.48
2023-01-11T08:32:02.557Z,98128.09
2023-01-11T08:34:31.355Z,98124.20
2023-01-11T08:37:02.234Z,98128.27
2023-01-11T08:39:31.191Z,98126.61
2023-01-11T08:42:00.371Z,98125.54
2023-01-11T08:44:34.100Z,98126.20
2023-01-11T08:47:04.077Z,98123.43
2023-01-11T08:49:32.012Z,98125.73
2023-01-11T08:51:59.965Z,98124.95
2023-01-11T08:54:28.008Z,98124.45
2023-01-11T08:56:56.367Z,98120.59
2023-01-11T08:59:24.275Z,98119.58
2023-01-11T09:01:52.263Z,98127.29
2023-01-11T09:04:25.101Z,98127.08
2023-01-11T09:06:53.810Z,98124.48
2023-01-11T09:09:21.930Z,98126.48
2023-01-11T09:11:57.097Z,98124.58
2023-01-11T09:14:27.630Z,98116.14
2023-01-11T09:16:56.492Z,98111.29
2023-01-11T09:19:25.343Z,98106.75
2023-01-11T09:21:57.485Z,98102.30
2023-01-11T09:24:25.440Z,98103.10
2023-01-11T09:26:53.404Z,98098.11
2023-01-11T09:29:21.427Z,98092.81
2023-01-11T09:31:49.410Z,98088.70
2023-01-11T09:34:17.323Z,98088.64
2023-01-11T09:36:47.493Z,98089.95
2023-01-11T09:39:19.356Z,98087.32
2023-01-11T09:42:06.287Z,98085.65
2023-01-11T09:44:49.931Z,98083.92
2023-01-11T09:47:30.290Z,98084.29
2023-01-11T09:50:02.264Z,98086.30
2023-01-11T09:52:43.921Z,98084.38
2023-01-11T09:55:23.194Z,98084.98
2023-01-11T09:58:24.194Z,98078.48
2023-01-11T10:00:55.418Z,98075.77
2023-01-11T10:03:38.931Z,98065.95
2023-01-11T10:06:33.375Z,98064.27
2023-01-11T10:18:30.854Z,98057.03
2023-01-11T10:18:48.908Z,98061.97
2023-01-11T10:21:54.765Z,98057.98
2023-01-11T10:24:33.296Z,98050.38
2023-01-11T10:27:07.688Z,98046.66
2023-01-11T10:29:53.803Z,98045.11
2023-01-11T10:32:54.350Z,98039.99
2023-01-11T10:35:48.002Z,98038.14
2023-01-11T10:38:43.686Z,98032.70
2023-01-11T10:41:26.612Z,98031.31
2023-01-11T10:44:05.242Z,98031.18
2023-01-11T10:46:36.970Z,98028.77
2023-01-11T10:49:41.172Z,98028.01
2023-01-11T10:52:23.308Z,98021.92
2023-01-11T10:54:56.030Z,98020.26
2023-01-11T10:58:02.748Z,98018.90
2023-01-11T11:00:44.701Z,98015.29
2023-01-11T11:03:31.680Z,98012.48
2023-01-11T11:06:24.758Z,98009.05
2023-01-11T11:09:12.580Z,97999.87
2023-01-11T11:11:49.173Z,97999.98
2023-01-11T11:14:52.870Z,97996.22
2023-01-11T11:17:26.992Z,97995.08
2023-01-11T11:19:54.976Z,97987.20
2023-01-11T11:22:23.078Z,97982.25
2023-01-11T11:25:05.263Z,97982.17
2023-01-11T11:27:37.496Z,97983.02
2023-01-11T11:30:06.260Z,97977.95
2023-01-11T11:32:38.446Z,97975.73
2023-01-11T11:35:10.798Z,97975.11
2023-01-11T11:37:45.636Z,97975.30
2023-01-11T11:40:30.593Z,97975.59
2023-01-11T11:43:20.848Z,97972.80
2023-01-11T11:45:56.926Z,97967.80
2023-01-11T11:48:31.377Z,97970.50
2023-01-11T11:51:03.560Z,97966.34
2023-01-11T11:53:55.700Z,97968.98
2023-01-11T11:56:27.602Z,97966.83
2023-01-11T11:58:58.166Z,97964.01
2023-01-11T12:01:31.694Z,97960.90
2023-01-11T12:04:05.141Z,97952.36
2023-01-11T12:06:33.132Z,97944.20
2023-01-11T12:09:03.243Z,97943.94
2023-01-11T12:11:42.304Z,97950.73
2023-01-11T12:14:10.258Z,97950.56
2023-01-11T12:16:41.454Z,97948.51
2023-01-11T12:19:25.734Z,97940.70
2023-01-11T12:21:54.232Z,97938.36
2023-01-11T12:24:24.042Z,97934.89
2023-01-11T12:27:11.066Z,97924.27
2023-01-11T12:30:20.955Z,97913.61
2023-01-11T12:33:13.432Z,97903.02
2023-01-11T12:35:51.785Z,97898.55
2023-01-11T12:38:33.222Z,97897.89
2023-01-11T12:41:42.429Z,97900.81
2023-01-11T12:44:28.736Z,97900.19
2023-01-11T12:47:05.722Z,97899.19
2023-01-11T12:49:58.094Z,97899.94
2023-01-11T12:52:45.227Z,97892.31
2023-01-11T12:55:31.170Z,97889.48
2023-01-11T12:58:14.168Z,97885.86
2023-01-11T13:01:09.350Z,97879.52
2023-01-11T13:03:54.387Z,97879.27
2023-01-11T13:06:42.188Z,97885.46
2023-01-11T13:09:40.066Z,97882.17
2023-01-11T13:12:26.347Z,97874.11
2023-01-11T13:15:03.382Z,97873.80
2023-01-11T13:18:16.441Z,97867.52
2023-01-11T13:21:01.188Z,97862.79
2023-01-11T13:23:44.977Z,97865.98
2023-01-11T13:26:19.828Z,97866.11
2023-01-11T13:28:54.952Z,97864.83
2023-01-11T13:31:24.373Z,97855.98
2023-01-11T13:34:01.228Z,97846.14
2023-01-11T13:36:40.947Z,97841.38
2023-01-11T13:39:24.111Z,97843.81
2023-01-11T13:41:58.178Z,97847.44
2023-01-11T13:44:37.094Z,97852.45
2023-01-11T13:47:27.563Z,97854.54
2023-01-11T13:50:13.496Z,97861.39
2023-01-11T13:53:03.692Z,97865.23
2023-01-11T13:55:42.029Z,97867.52
2023-01-11T13:58:19.257Z,97867.83
2023-01-11T14:01:18.229Z,97862.05
2023-01-11T14:03:49.394Z,97857.63
2023-01-11T14:06:28.397Z,97863.63
2023-01-11T14:09:18.329Z,97859.41
2023-01-11T14:12:22.015Z,97860.95
2023-01-11T14:15:08.368Z,97858.02
2023-01-11T14:17:44.958Z,97850.95
2023-01-11T14:20:15.576Z,97849.50
2023-01-11T14:22:43.439Z,97847.73
2023-01-11T14:25:24.920Z,97848.33
2023-01-11T14:28:11.763Z,97846.25
2023-01-11T14:31:01.645Z,97851.11
2023-01-11T14:33:32.690Z,97848.45
2023-01-11T14:36:10.272Z,97845.45
2023-01-11T14:38:57.959Z,97840.33
2023-01-11T14:41:55.122Z,97844.39
2023-01-11T14:44:48.210Z,97836.41
2023-01-11T14:47:34.949Z,97834.38
2023-01-11T14:50:44.943Z,97830.56
2023-01-11T14:53:21.687Z,97829.67
2023-01-11T14:55:49.884Z,97829.28
2023-01-11T14:58:24.027Z,97827.38
2023-01-11T15:00:54.585Z,97822.16
2023-01-11T15:03:22.407Z,97820.93
2023-01-11T15:05:55.236Z,97819.98
2023-01-11T15:08:26.359Z,97814.65
2023-01-11T15:10:59.177Z,97815.56
2023-01-11T15:13:49.606Z,97810.70
2023-01-11T15:16:47.982Z,97811.02
2023-01-11T15:19:37.170Z,97801.88
2023-01-11T15:22:06.350Z,97799.83
2023-01-11T15:24:44.152Z,97799.06
2023-01-11T15:27:28.119Z,97792.80
2023-01-11T15:29:57.693Z,97787.10
2023-01-11T15:32:36.303Z,97783.45
2023-01-11T15:35:22.713Z,97778.58
2023-01-11T15:38:18.492Z,97774.98
2023-01-11T15:40:46.791Z,97771.38
2023-01-11T15:43:38.017Z,97774.69
2023-01-11T15:46:54.027Z,97770.27
2023-01-11T15:49:41.090Z,97772.77
2023-01-11T15:52:33.963Z,97767.70
2023-01-11T15:55:26.812Z,97766.02
2023-01-11T15:58:24.028Z,97767.95
2023-01-11T16:01:11.185Z,97768.11
2023-01-11T16:03:51.908Z,97765.80
2023-01-11T16:06:47.481Z,97763.25
2023-01-11T16:09:37.934Z,97761.05
2023-01-11T16:12:20.857Z,97769.40
2023-01-11T16:14:57.770Z,97769.12
2023-01-11T16:17:27.028Z,97770.29
2023-01-11T16:19:57.008Z,97769.06
2023-01-11T16:22:27.677Z,97766.58
2023-01-11T16:25:01.340Z,97766.16
2023-01-11T16:27:33.241Z,97765.58
2023-01-11T16:30:01.914Z,97762.48
2023-01-11T16:32:35.408Z,97762.67
2023-01-11T16:35:17.483Z,97760.55
2023-01-11T16:37:51.916Z,97760.56
2023-01-11T16:40:21.643Z,97759.59
2023-01-11T16:42:55.599Z,97760.89
2023-01-11T16:45:38.876Z,97759.16
2023-01-11T16:48:30.213Z,97754.34
2023-01-11T16:51:10.304Z,97754.69
2023-01-11T16:53:43.705Z,97755.30
2023-01-11T16:56:16.747Z,97755.44
2023-01-11T16:59:05.390Z,97750.92
2023-01-11T17:01:59.898Z,97752.34
2023-01-11T17:04:30.941Z,97751.60
2023-01-11T17:07:13.760Z,97750.41
2023-01-11T17:09:43.797Z,97746.58
2023-01-11T17:12:24.952Z,97748.39
2023-01-11T17:15:27.103Z,97748.52
2023-01-11T17:17:55.164Z,97747.58
2023-01-11T17:20:29.843Z,97749.50
2023-01-11T17:22:59.244Z,97755.07
2023-01-11T17:25:43.887Z,97749.77
2023-01-11T17:28:20.181Z,97756.39
2023-01-11T17:30:51.430Z,97753.75
2023-01-11T17:33:33.634Z,97757.00
2023-01-11T17:36:02.882Z,97756.02
2023-01-11T17:38:31.589Z,97754.27
2023-01-11T17:41:02.584Z,97755.35
2023-01-11T17:43:50.155Z,97752.44
2023-01-11T17:46:22.253Z,97755.46
2023-01-11T17:48:59.118Z,97754.44
2023-01-11T17:51:32.743Z,97748.15
2023-01-11T17:54:00.827Z,97750.58
2023-01-11T17:56:45.683Z,97748.79
2023-01-11T17:59:16.458Z,97743.17
2023-01-11T18:01:50.680Z,97741.52
2023-01-11T18:04:21.022Z,97737.11
2023-01-11T18:06:52.378Z,97736.06
2023-01-11T18:09:31.705Z,97728.30
2023-01-11T18:12:26.040Z,97732.83
2023-01-11T18:14:58.407Z,97731.87
2023-01-11T18:17:32.497Z,97733.73
2023-01-11T18:20:03.097Z,97742.17
2023-01-11T18:22:40.831Z,97744.46
2023-01-11T18:25:19.437Z,97746.05
2023-01-11T18:27:48.067Z,97747.59
2023-01-11T18:30:31.346Z,97750.67
2023-01-11T18:33:02.276Z,97752.04
2023-01-11T18:35:30.916Z,97749.45
2023-01-11T18:37:58.919Z,97746.07
2023-01-11T18:40:26.894Z,97740.36
2023-01-11T18:42:57.448Z,97736.19
2023-01-11T18:45:25.395Z,97730.69
2023-01-11T18:47:53.396Z,97736.92
2023-01-11T18:50:21.336Z,97738.83
2023-01-11T18:52:50.208Z,97745.71
2023-01-11T18:55:19.887Z,97749.48
2023-01-11T18:57:48.087Z,97749.63
2023-01-11T19:00:16.913Z,97744.86
2023-01-11T19:02:45.211Z,97743.19
2023-01-11T19:05:16.800Z,97747.11
2023-01-11T19:07:45.502Z,97752.65
2023-01-11T19:10:19.330Z,97752.35
2023-01-11T19:12:48.590Z,97752.64
2023-01-11T19:15:17.114Z,97752.37
2023-01-11T19:17:45.161Z,97755.89
2023-01-11T19:20:14.313Z,97750.27
2023-01-11T19:22:42.448Z,97749.98
2023-01-11T19:25:11.127Z,97756.55
2023-01-11T19:27:39.245Z,97758.80
2023-01-11T19:30:08.101Z,97763.36
2023-01-11T19:32:36.091Z,97767.48
2023-01-11T19:35:04.351Z,97767.53
2023-01-11T19:37:37.663Z,97766.83
2023-01-11T19:40:06.354Z,97770.08
2023-01-11T19:42:34.775Z,97772.18
2023-01-11T19:45:03.502Z,97774.59
2023-01-11T19:47:31.431Z,97774.73
2023-01-11T19:50:01.105Z,97775.61
2023-01-11T19:52:29.748Z,97779.70
2023-01-11T19:55:00.592Z,97782.34
2023-01-11T19:57:29.826Z,97782.40
2023-01-11T19:59:57.802Z,97776.63
2023-01-11T20:02:26.441Z,97773.77
2023-01-11T20:04:55.587Z,97771.38
2023-01-11T20:07:23.530Z,97775.08
2023-01-11T20:09:51.478Z,97773.52
2023-01-11T20:12:19.463Z,97774.08
2023-01-11T20:14:47.369Z,97779.05
2023-01-11T20:17:21.177Z,97770.80
2023-01-11T20:19:55.383Z,97766.98
2023-01-11T20:22:26.709Z,97765.28
2023-01-11T20:24:56.338Z,97767.27
2023-01-11T20:27:24.676Z,97770.85
2023-01-11T20:29:52.714Z,97766.28
2023-01-11T20:32:39.620Z,97762.85
2023-01-11T20:35:10.143Z,97761.05
2023-01-11T20:37:38.643Z,97762.91
2023-01-11T20:40:07.748Z,97755.80
2023-01-11T20:42:35.993Z,97762.71
2023-01-11T20:45:04.602Z,97766.27
2023-01-11T20:47:33.022Z,97764.18
2023-01-11T20:50:01.060Z,97760.29
2023-01-11T20:52:29.010Z,97757.98
2023-01-11T20:54:57.272Z,97763.30
2023-01-11T20:57:29.350Z,97759.95
2023-01-11T20:59:57.706Z,97762.45
2023-01-11T21:02:25.881Z,97760.90
2023-01-11T21:04:54.004Z,97764.16
2023-01-11T21:07:24.332Z,97768.59
2023-01-11T21:09:52.342Z,97770.94
2023-01-11T21:12:20.509Z,97770.93
2023-01-11T21:14:48.442Z,97776.42
2023-01-11T21:17:19.418Z,97774.34
2023-01-11T21:19:47.879Z,97777.67
2023-01-11T21:22:16.025Z,97781.52
2023-01-11T21:24:44.537Z,97779.92
2023-01-11T21:27:12.514Z,97784.42
2023-01-11T21:29:40.477Z,97787.61
2023-01-11T21:32:08.348Z,97793.02
2023-01-11T21:34:36.500Z,97796.84
2023-01-11T21:37:04.556Z,97801.52
2023-01-11T21:39:32.652Z,97806.22
2023-01-11T21:42:01.316Z,97802.05
2023-01-11T21:44:32.449Z,97799.69
2023-01-11T21:47:03.169Z,97799.57
2023-01-11T21:49:32.328Z,97805.15
2023-01-11T21:52:00.511Z,97809.83
2023-01-11T21:54:28.537Z,97815.30
2023-01-11T21:56:56.831Z,97816.67
2023-01-11T21:59:25.321Z,97818.64
2023-01-11T22:01:54.061Z,97819.34
2023-01-11T22:04:22.153Z,97815.48
2023-01-11T22:06:54.758Z,97809.22
2023-01-11T22:09:25.797Z,97806.58
2023-01-11T22:11:53.813Z,97809.40
2023-01-11T22:14:22.918Z,97809.55
2023-01-11T22:16:51.359Z,97809.98
2023-01-11T22:19:19.323Z,97817.11
2023-01-11T22:21:47.465Z,97822.16
2023-01-11T22:24:16.037Z,97826.40
2023-01-11T22:26:44.287Z,97827.34
2023-01-11T22:29:12.572Z,97826.50
2023-01-11T22:31:53.338Z,97829.60
2023-01-11T22:34:22.463Z,97827.55
2023-01-11T22:36:50.619Z,97825.58
2023-01-11T22:39:21.769Z,97830.13
2023-01-11T22:41:50.222Z,97836.05
2023-01-11T22:44:18.631Z,97841.84
2023-01-11T22:46:47.383Z,97847.64
2023-01-11T22:49:15.991Z,97851.27
2023-01-11T22:51:44.367Z,97857.66
2023-01-11T22:54:12.840Z,97856.02
2023-01-11T22:56:41.380Z,97858.39
2023-01-11T22:59:10.514Z,97861.24
2023-01-11T23:01:40.508Z,97861.90
2023-01-11T23:04:12.389Z,97863.06
2023-01-11T23:06:42.472Z,97858.31
2023-01-11T23:09:16.679Z,97857.23
2023-01-11T23:12:03.548Z,97856.95
2023-01-11T23:14:33.271Z,97861.54
2023-01-11T23:17:07.060Z,97866.62
2023-01-11T23:19:37.187Z,97872.18
2023-01-11T23:22:05.402Z,97873.70
2023-01-11T23:24:33.679Z,97874.30
2023-01-11T23:27:01.679Z,97875.80
2023-01-11T23:29:29.775Z,97876.02
2023-01-11T23:31:57.821Z,97881.95
2023-01-11T23:34:25.832Z,97882.08
2023-01-11T23:36:53.966Z,97887.34
2023-01-11T23:39:24.223Z,97881.50
2023-01-11T23:42:11.332Z,97883.84
2023-01-11T23:44:39.512Z,97880.80
2023-01-11T23:47:21.987Z,97882.11
2023-01-11T23:49:53.164Z,97892.04
2023-01-11T23:52:24.712Z,97889.61
2023-01-11T23:54:53.157Z,97887.98
2023-01-11T23:57:22.352Z,97886.39
2023-01-11T23:59:51.473Z,97892.27
